Time;durP1;ratioP1;P1;durP2;ratioP2;P2;SDS_P1;SDS_P2;PMS_P1;PMS_P2;Temp;Humidity;BMP_temperature;BMP_pressure;BME280_temperature;BME280_humidity;BME280_pressure;Samples;Min_cycle;Max_cycle;Signal;HPM_P1;HPM_P2
2023/06/30 00:01:50;;;;;;;2.27;1.57;;;15.80;99.90;;;;;;5094826;28;20226;-43
2023/06/30 00:04:19;;;;;;;2.50;1.77;;;15.80;99.90;;;;;;5094738;28;20199;-41
2023/06/30 00:06:49;;;;;;;1.90;1.60;;;15.70;99.90;;;;;;5094498;28;20658;-44
2023/06/30 00:09:18;;;;;;;2.07;1.60;;;15.70;99.90;;;;;;5094581;28;20178;-46
2023/06/30 00:11:44;;;;;;;1.43;1.33;;;15.70;99.90;;;;;;5094588;28;20301;-43
2023/06/30 00:14:09;;;;;;;3.23;1.40;;;15.60;99.90;;;;;;5094252;28;20753;-44
2023/06/30 00:16:35;;;;;;;3.50;1.50;;;15.60;99.90;;;;;;5094490;28;20190;-43
2023/06/30 00:19:02;;;;;;;3.87;1.63;;;15.50;99.90;;;;;;5094152;28;20179;-42
2023/06/30 00:21:28;;;;;;;3.30;1.70;;;15.50;99.90;;;;;;5094316;28;20205;-44
2023/06/30 00:23:53;;;;;;;2.27;1.50;;;15.50;99.90;;;;;;5094053;28;20179;-43
2023/06/30 00:26:19;;;;;;;5.50;1.50;;;15.50;99.90;;;;;;5094087;28;20240;-43
2023/06/30 00:28:45;;;;;;;2.47;1.60;;;15.50;99.90;;;;;;5094236;28;20189;-43
2023/06/30 00:31:11;;;;;;;4.20;1.60;;;15.40;99.90;;;;;;5094240;28;20186;-43
2023/06/30 00:33:36;;;;;;;5.80;2.30;;;15.50;99.90;;;;;;5093914;28;20179;-42
2023/06/30 00:36:02;;;;;;;2.20;2.00;;;15.50;99.90;;;;;;5093833;28;20598;-43
2023/06/30 00:38:27;;;;;;;2.70;2.00;;;15.50;99.90;;;;;;5094095;28;20190;-44
2023/06/30 00:40:53;;;;;;;3.23;2.30;;;15.50;99.90;;;;;;5094279;28;20198;-43
2023/06/30 00:43:18;;;;;;;2.73;2.27;;;15.50;99.90;;;;;;5094037;28;20615;-44
2023/06/30 00:45:44;;;;;;;6.07;2.47;;;15.50;99.90;;;;;;5093735;28;20203;-43
2023/06/30 00:48:09;;;;;;;7.20;2.33;;;15.50;99.90;;;;;;5093696;28;20261;-43
2023/06/30 00:50:36;;;;;;;8.17;2.40;;;15.50;99.90;;;;;;5094238;28;20198;-43
2023/06/30 00:53:01;;;;;;;3.10;2.23;;;15.50;99.90;;;;;;5093847;28;20182;-42
2023/06/30 00:55:27;;;;;;;4.30;2.37;;;15.50;99.90;;;;;;5093624;28;20213;-45
2023/06/30 00:57:53;;;;;;;2.97;2.03;;;15.50;99.90;;;;;;5093615;28;20190;-44
2023/06/30 01:00:19;;;;;;;3.97;2.20;;;15.50;99.90;;;;;;5075401;28;20210;-45
2023/06/30 01:03:19;;;;;;;2.97;2.17;;;15.40;99.90;;;;;;5093614;28;20173;-44
2023/06/30 01:06:09;;;;;;;3.07;2.10;;;15.40;99.90;;;;;;5093355;28;20194;-43
2023/06/30 01:08:48;;;;;;;2.83;2.30;;;15.40;99.90;;;;;;5093696;28;20151;-44
2023/06/30 01:11:14;;;;;;;5.47;2.33;;;15.40;99.90;;;;;;5093717;28;20283;-43
2023/06/30 01:13:42;;;;;;;5.77;2.10;;;15.40;99.90;;;;;;5093493;28;20179;-40
2023/06/30 01:16:09;;;;;;;4.07;2.13;;;15.30;99.90;;;;;;5093612;28;20203;-44
2023/06/30 01:18:36;;;;;;;3.23;2.00;;;15.40;99.90;;;;;;5075202;28;20183;-43
2023/06/30 01:21:04;;;;;;;2.57;2.20;;;15.40;99.90;;;;;;5093521;28;20194;-42
2023/06/30 01:23:37;;;;;;;3.80;2.10;;;15.40;99.90;;;;;;5093266;28;20175;-43
2023/06/30 01:26:04;;;;;;;4.17;2.50;;;15.30;99.90;;;;;;5093186;28;20187;-42
2023/06/30 01:28:33;;;;;;;5.23;2.10;;;15.30;99.90;;;;;;5093513;28;20199;-42
2023/06/30 01:30:59;;;;;;;3.03;1.97;;;15.30;99.90;;;;;;5093774;28;20254;-42
2023/06/30 01:33:26;;;;;;;4.77;2.50;;;15.30;99.90;;;;;;5093169;28;20262;-41
2023/06/30 01:35:52;;;;;;;6.80;2.67;;;15.30;99.90;;;;;;5093135;28;20194;-42
2023/06/30 01:38:18;;;;;;;6.13;2.13;;;15.30;99.90;;;;;;5093665;28;20175;-42
2023/06/30 01:40:47;;;;;;;4.13;2.10;;;15.30;99.90;;;;;;5093059;28;20232;-44
2023/06/30 01:43:13;;;;;;;8.73;2.70;;;15.30;99.90;;;;;;5093426;28;20175;-41
2023/06/30 01:45:40;;;;;;;5.90;2.80;;;15.30;99.90;;;;;;5093111;28;20230;-43
2023/06/30 01:48:06;;;;;;;3.67;2.27;;;15.30;99.90;;;;;;5093031;28;20178;-42
2023/06/30 01:50:32;;;;;;;3.50;2.47;;;15.20;99.90;;;;;;5094711;28;20179;-42
2023/06/30 01:52:59;;;;;;;7.50;2.63;;;15.20;99.90;;;;;;5097600;28;20178;-43
2023/06/30 01:55:26;;;;;;;5.07;2.47;;;15.30;99.90;;;;;;5096961;28;20226;-42
2023/06/30 01:57:52;;;;;;;8.97;3.13;;;15.20;99.90;;;;;;5096794;28;20197;-42
2023/06/30 02:00:18;;;;;;;6.57;2.90;;;15.20;99.90;;;;;;5096906;28;20186;-42
2023/06/30 02:02:43;;;;;;;6.60;3.10;;;15.20;99.90;;;;;;5096814;28;20167;-42
2023/06/30 02:05:09;;;;;;;5.20;2.90;;;15.20;99.90;;;;;;5078492;28;20194;-43
2023/06/30 02:07:35;;;;;;;7.93;3.10;;;15.20;99.90;;;;;;5097034;28;20534;-44
2023/06/30 02:10:01;;;;;;;6.90;2.97;;;15.20;99.90;;;;;;5096708;28;20541;-40
2023/06/30 02:12:27;;;;;;;4.40;2.80;;;15.20;99.90;;;;;;5096964;28;20258;-42
2023/06/30 02:14:53;;;;;;;8.20;2.60;;;15.20;99.90;;;;;;5096894;28;20230;-44
2023/06/30 02:17:31;;;;;;;3.83;2.77;;;15.30;99.90;;;;;;5096587;28;20176;-44
2023/06/30 02:19:57;;;;;;;4.77;2.90;;;15.20;99.90;;;;;;5078380;28;20183;-43
2023/06/30 02:22:23;;;;;;;5.53;3.30;;;15.30;99.90;;;;;;5096462;28;20236;-42
2023/06/30 02:24:48;;;;;;;4.27;3.00;;;15.20;99.90;;;;;;5096509;28;20312;-43
2023/06/30 02:27:16;;;;;;;11.73;3.83;;;15.30;99.90;;;;;;5096859;28;20238;-43
2023/06/30 02:29:42;;;;;;;6.53;3.40;;;15.30;99.90;;;;;;5097153;28;20175;-42
2023/06/30 02:32:08;;;;;;;8.13;3.90;;;15.30;99.90;;;;;;5097649;28;20643;-43
2023/06/30 02:34:33;;;;;;;6.40;4.10;;;15.40;99.90;;;;;;5096766;28;20646;-43
2023/06/30 02:37:00;;;;;;;9.93;4.27;;;15.40;99.90;;;;;;5096712;28;20190;-41
2023/06/30 02:39:26;;;;;;;7.70;4.80;;;15.30;99.90;;;;;;5096287;28;20187;-41
2023/06/30 02:41:52;;;;;;;11.50;4.73;;;15.40;99.90;;;;;;5096091;28;20203;-40
2023/06/30 02:44:17;;;;;;;7.80;4.47;;;15.40;99.90;;;;;;5095992;28;20190;-43
2023/06/30 02:46:43;;;;;;;13.70;5.57;;;15.40;99.90;;;;;;5096624;28;20172;-42
2023/06/30 02:49:08;;;;;;;11.17;5.10;;;15.40;99.90;;;;;;5096157;28;20183;-43
2023/06/30 02:51:34;;;;;;;10.13;5.30;;;15.40;99.90;;;;;;5096686;28;20178;-46
2023/06/30 02:53:59;;;;;;;12.63;6.30;;;15.40;99.90;;;;;;5095814;28;20276;-46
2023/06/30 02:56:25;;;;;;;9.47;5.50;;;15.40;99.90;;;;;;5095683;28;20195;-45
2023/06/30 02:58:50;;;;;;;9.17;5.67;;;15.30;99.90;;;;;;5096339;28;20243;-46
2023/06/30 03:01:17;;;;;;;10.67;5.77;;;15.30;99.90;;;;;;5095508;28;20201;-46
2023/06/30 03:03:42;;;;;;;11.20;5.13;;;15.20;99.90;;;;;;5094656;28;20167;-47
2023/06/30 03:06:08;;;;;;;10.17;5.40;;;15.30;99.90;;;;;;5095854;28;20248;-46
2023/06/30 03:08:33;;;;;;;9.57;4.83;;;15.20;99.90;;;;;;5096083;28;20571;-47
2023/06/30 03:11:00;;;;;;;12.03;5.37;;;15.20;99.90;;;;;;5095520;28;20175;-47
2023/06/30 03:13:25;;;;;;;10.67;5.33;;;15.10;99.90;;;;;;5095658;28;20270;-45
2023/06/30 03:15:51;;;;;;;11.27;5.33;;;15.10;99.90;;;;;;5095653;28;20617;-46
2023/06/30 03:18:16;;;;;;;10.90;5.07;;;15.10;99.90;;;;;;5095617;28;20175;-47
2023/06/30 03:20:42;;;;;;;11.37;5.63;;;15.10;99.90;;;;;;5095174;28;20203;-47
2023/06/30 03:23:07;;;;;;;11.87;5.40;;;15.10;99.90;;;;;;5095605;28;20166;-46
2023/06/30 03:25:33;;;;;;;11.87;5.07;;;15.10;99.90;;;;;;5095304;28;20274;-45
2023/06/30 03:27:58;;;;;;;10.17;4.80;;;15.10;99.90;;;;;;5077072;28;20200;-46
2023/06/30 03:30:24;;;;;;;7.97;5.43;;;15.10;99.90;;;;;;5095192;28;20547;-47
2023/06/30 03:32:49;;;;;;;13.97;5.83;;;15.10;99.90;;;;;;5095236;28;20652;-46
2023/06/30 03:35:15;;;;;;;15.17;4.80;;;15.10;99.90;;;;;;5095683;28;20286;-46
2023/06/30 03:37:40;;;;;;;16.13;5.30;;;15.10;99.90;;;;;;5095057;28;20224;-46
2023/06/30 03:40:06;;;;;;;14.13;5.53;;;15.10;99.90;;;;;;5076718;28;20181;-45
2023/06/30 03:42:32;;;;;;;9.13;4.87;;;15.10;99.90;;;;;;5094980;28;20232;-47
2023/06/30 03:44:59;;;;;;;16.90;5.53;;;15.10;99.90;;;;;;5094929;28;20198;-44
2023/06/30 03:47:24;;;;;;;17.03;6.30;;;15.10;99.90;;;;;;5094855;28;20175;-44
2023/06/30 03:49:50;;;;;;;12.33;5.40;;;15.10;99.90;;;;;;5095430;28;20194;-43
2023/06/30 03:52:15;;;;;;;15.13;5.10;;;15.10;99.90;;;;;;5094726;28;20174;-46
2023/06/30 03:54:42;;;;;;;13.07;5.27;;;15.10;99.90;;;;;;5094656;28;20195;-44
2023/06/30 03:57:07;;;;;;;12.13;4.57;;;15.10;99.90;;;;;;5094773;28;20203;-46
2023/06/30 03:59:33;;;;;;;11.87;4.63;;;15.00;99.90;;;;;;5094627;28;20186;-47
2023/06/30 04:01:58;;;;;;;10.30;4.70;;;15.10;99.90;;;;;;5094994;28;20199;-45
2023/06/30 04:04:24;;;;;;;20.30;5.13;;;15.00;99.90;;;;;;5094638;28;20210;-48
2023/06/30 04:06:50;;;;;;;11.93;4.93;;;15.00;99.90;;;;;;5094706;28;20585;-48
2023/06/30 04:09:16;;;;;;;12.70;4.70;;;15.10;99.90;;;;;;5094414;28;20723;-47
2023/06/30 04:11:41;;;;;;;12.70;4.80;;;15.10;99.90;;;;;;5094602;28;20202;-47
2023/06/30 04:14:07;;;;;;;13.20;5.10;;;15.10;99.90;;;;;;5075880;28;20217;-46
2023/06/30 04:16:33;;;;;;;9.03;4.10;;;15.10;99.90;;;;;;5094905;28;20198;-46
2023/06/30 04:18:58;;;;;;;7.57;4.13;;;15.10;99.90;;;;;;5094325;28;20178;-48
2023/06/30 04:21:24;;;;;;;10.20;3.97;;;15.10;99.90;;;;;;5076630;28;20705;-47
2023/06/30 04:23:49;;;;;;;10.63;4.57;;;15.10;99.90;;;;;;5075991;28;20197;-48
2023/06/30 04:26:18;;;;;;;15.13;4.43;;;15.10;99.90;;;;;;5094450;28;20197;-47
2023/06/30 04:28:45;;;;;;;10.80;4.13;;;15.00;99.90;;;;;;5094389;28;20178;-46
2023/06/30 04:31:10;;;;;;;12.57;4.20;;;15.00;99.90;;;;;;5094159;28;20189;-46
2023/06/30 04:33:36;;;;;;;8.73;3.87;;;15.00;99.90;;;;;;5094014;28;20174;-47
2023/06/30 04:36:01;;;;;;;11.17;4.17;;;15.00;99.90;;;;;;5093935;28;20210;-48
2023/06/30 04:38:27;;;;;;;10.60;3.80;;;15.00;99.90;;;;;;5094024;28;20273;-48
2023/06/30 04:40:54;;;;;;;8.67;3.93;;;15.00;99.90;;;;;;5094143;28;20199;-47
2023/06/30 04:43:19;;;;;;;13.20;4.37;;;15.00;99.90;;;;;;5094215;28;20191;-47
2023/06/30 04:45:45;;;;;;;12.10;4.30;;;15.00;99.90;;;;;;5093882;28;20691;-47
2023/06/30 04:48:10;;;;;;;12.50;3.87;;;15.00;99.90;;;;;;5093872;28;20186;-47
2023/06/30 04:50:36;;;;;;;11.23;3.73;;;15.00;99.90;;;;;;5093807;28;20179;-47
2023/06/30 04:53:02;;;;;;;10.33;4.27;;;15.10;99.90;;;;;;5094047;28;20643;-48
2023/06/30 04:55:28;;;;;;;18.20;3.83;;;15.10;99.90;;;;;;5093692;28;20289;-47
2023/06/30 04:57:56;;;;;;;9.27;3.47;;;15.00;99.90;;;;;;5093692;28;20554;-47
2023/06/30 05:00:26;;;;;;;8.93;4.00;;;15.00;99.90;;;;;;5075489;28;20194;-47
2023/06/30 05:02:51;;;;;;;10.43;3.87;;;15.00;99.90;;;;;;5093847;28;20257;-48
2023/06/30 05:05:17;;;;;;;12.30;4.40;;;15.10;99.90;;;;;;5093491;28;20224;-47
2023/06/30 05:07:43;;;;;;;7.37;3.73;;;15.10;99.90;;;;;;5093574;28;20220;-46
2023/06/30 05:10:09;;;;;;;11.20;4.63;;;15.10;99.90;;;;;;5093885;28;20178;-47
2023/06/30 05:12:35;;;;;;;7.93;4.07;;;15.10;99.90;;;;;;5094072;28;20175;-43
2023/06/30 05:15:01;;;;;;;16.67;4.07;;;15.10;99.90;;;;;;5093668;28;20199;-42
2023/06/30 05:17:26;;;;;;;10.77;3.93;;;15.10;99.90;;;;;;5093402;28;20225;-43
2023/06/30 05:19:52;;;;;;;8.87;3.80;;;15.20;99.90;;;;;;5093600;28;20171;-43
2023/06/30 05:22:17;;;;;;;8.17;4.00;;;15.20;99.90;;;;;;5093434;28;20289;-41
2023/06/30 05:24:43;;;;;;;14.40;4.23;;;15.20;99.90;;;;;;5093465;28;20183;-43
2023/06/30 05:27:09;;;;;;;13.13;3.40;;;15.20;99.90;;;;;;5097131;28;20175;-43
2023/06/30 05:29:35;;;;;;;10.43;3.50;;;15.30;99.90;;;;;;5079482;28;20178;-42
2023/06/30 05:32:00;;;;;;;12.57;3.67;;;15.30;99.90;;;;;;5097508;28;20206;-42
2023/06/30 05:34:26;;;;;;;17.83;3.83;;;15.40;99.90;;;;;;5097409;28;20191;-43
2023/06/30 05:36:52;;;;;;;11.40;3.87;;;15.40;99.90;;;;;;5097457;28;20174;-43
2023/06/30 05:39:17;;;;;;;8.87;4.40;;;15.50;99.90;;;;;;5097437;28;20185;-43
2023/06/30 05:41:43;;;;;;;8.73;2.70;;;15.60;99.90;;;;;;5098086;28;20198;-42
2023/06/30 05:44:09;;;;;;;10.90;3.10;;;15.60;99.90;;;;;;5097442;28;20194;-43
2023/06/30 05:46:37;;;;;;;10.03;3.30;;;15.60;99.90;;;;;;5097582;28;20179;-42
2023/06/30 05:49:05;;;;;;;9.63;3.67;;;15.60;99.90;;;;;;5097798;28;20179;-45
2023/06/30 05:51:35;;;;;;;13.50;3.20;;;15.70;99.90;;;;;;5097252;28;20183;-44
2023/06/30 05:54:04;;;;;;;14.20;3.80;;;15.60;99.90;;;;;;5097295;28;20215;-41
2023/06/30 05:56:30;;;;;;;6.27;2.33;;;15.60;99.90;;;;;;5097106;28;20546;-44
2023/06/30 05:58:57;;;;;;;6.97;2.70;;;15.60;99.90;;;;;;5097227;28;20190;-41
2023/06/30 06:01:23;;;;;;;7.93;2.53;;;15.60;99.90;;;;;;5097119;28;20675;-44
2023/06/30 06:03:49;;;;;;;8.80;2.40;;;15.60;99.90;;;;;;5078535;28;20197;-42
2023/06/30 06:06:14;;;;;;;6.50;2.77;;;15.60;99.90;;;;;;5096989;28;20239;-42
2023/06/30 06:08:42;;;;;;;5.53;3.03;;;15.60;99.90;;;;;;5097057;28;20202;-43
2023/06/30 06:11:08;;;;;;;9.00;2.97;;;15.70;99.90;;;;;;5097064;28;20167;-41
2023/06/30 06:13:35;;;;;;;9.67;2.90;;;15.70;99.90;;;;;;5097287;28;20515;-42
2023/06/30 06:16:02;;;;;;;5.60;2.73;;;15.80;99.90;;;;;;5096652;28;20194;-42
2023/06/30 06:18:27;;;;;;;10.63;2.70;;;15.80;99.90;;;;;;5096565;28;20181;-42
2023/06/30 06:20:53;;;;;;;8.20;3.10;;;16.00;99.90;;;;;;5096533;28;20558;-43
2023/06/30 06:23:19;;;;;;;7.47;2.87;;;16.10;99.90;;;;;;5096993;28;20260;-40
2023/06/30 06:25:45;;;;;;;11.80;3.10;;;16.10;99.90;;;;;;5096595;28;20217;-44
2023/06/30 06:28:10;;;;;;;11.83;2.43;;;16.20;99.90;;;;;;5096464;28;20171;-44
2023/06/30 06:30:36;;;;;;;7.27;2.17;;;16.30;99.90;;;;;;5096672;28;20238;-42
2023/06/30 06:33:02;;;;;;;6.57;2.50;;;16.40;99.90;;;;;;5096302;28;20202;-42
2023/06/30 06:35:27;;;;;;;7.67;2.60;;;16.50;99.90;;;;;;5096303;28;20225;-41
2023/06/30 06:37:53;;;;;;;7.27;2.23;;;16.60;99.90;;;;;;5096618;28;20257;-43
2023/06/30 06:40:18;;;;;;;11.47;2.40;;;16.60;99.90;;;;;;5096107;28;20592;-43
2023/06/30 06:42:44;;;;;;;7.67;2.40;;;16.70;99.90;;;;;;5096436;28;20182;-43
2023/06/30 06:45:10;;;;;;;9.67;2.47;;;16.80;99.90;;;;;;5096015;28;20191;-44
2023/06/30 06:48:13;;;;;;;7.47;2.20;;;16.90;99.90;;;;;;5096230;28;20188;-43
2023/06/30 06:50:39;;;;;;;5.40;1.97;;;16.90;99.90;;;;;;5095914;28;20635;-44
2023/06/30 06:53:04;;;;;;;6.37;2.07;;;17.00;99.90;;;;;;5096314;28;20189;-43
2023/06/30 06:55:30;;;;;;;7.07;1.93;;;17.20;99.90;;;;;;5095891;28;20211;-43
2023/06/30 06:57:55;;;;;;;5.27;2.10;;;17.20;99.90;;;;;;5077908;28;20239;-42
2023/06/30 07:00:21;;;;;;;6.20;2.10;;;17.30;99.90;;;;;;5096656;28;20207;-41
2023/06/30 07:02:46;;;;;;;5.13;1.83;;;17.20;99.90;;;;;;5096109;28;20175;-43
2023/06/30 07:05:12;;;;;;;3.40;1.50;;;17.30;99.90;;;;;;5095749;28;20713;-45
2023/06/30 07:07:38;;;;;;;5.40;1.87;;;17.30;99.90;;;;;;5095655;28;20650;-43
2023/06/30 07:10:04;;;;;;;9.67;1.87;;;17.50;99.90;;;;;;5095852;28;20159;-43
2023/06/30 07:12:29;;;;;;;7.93;1.90;;;17.60;99.90;;;;;;5095652;28;20183;-44
2023/06/30 07:14:55;;;;;;;7.63;2.10;;;17.80;99.90;;;;;;5095717;28;20199;-42
2023/06/30 07:17:21;;;;;;;11.60;2.77;;;18.10;99.90;;;;;;5095489;28;20186;-44
2023/06/30 07:19:46;;;;;;;4.63;2.00;;;18.20;99.90;;;;;;5095433;28;20206;-43
2023/06/30 07:22:12;;;;;;;5.90;2.27;;;18.20;99.90;;;;;;5095325;28;20664;-44
2023/06/30 07:24:38;;;;;;;6.30;1.63;;;18.20;99.90;;;;;;5095237;28;20278;-43
2023/06/30 07:27:03;;;;;;;6.57;1.87;;;18.20;99.90;;;;;;5095379;28;20236;-44
2023/06/30 07:29:29;;;;;;;7.00;1.80;;;18.20;99.90;;;;;;5095515;28;20522;-44
2023/06/30 07:31:54;;;;;;;5.00;1.33;;;18.30;99.90;;;;;;5095201;28;20187;-43
2023/06/30 07:34:23;;;;;;;4.40;1.50;;;18.60;99.90;;;;;;5095468;28;20237;-43
2023/06/30 07:36:50;;;;;;;6.77;1.80;;;18.70;99.90;;;;;;5095406;28;20654;-43
2023/06/30 07:39:16;;;;;;;6.47;1.80;;;18.80;99.90;;;;;;5095280;28;20178;-45
2023/06/30 07:41:42;;;;;;;4.40;2.10;;;18.90;99.90;;;;;;5095164;28;20203;-43
2023/06/30 07:44:10;;;;;;;7.53;1.83;;;19.10;99.90;;;;;;5095233;28;20799;-44
2023/06/30 07:46:36;;;;;;;5.20;1.50;;;19.20;99.90;;;;;;5094951;28;20254;-44
2023/06/30 07:49:02;;;;;;;3.87;1.57;;;19.40;99.90;;;;;;5094493;28;20709;-44
2023/06/30 07:51:29;;;;;;;7.47;2.03;;;19.40;99.90;;;;;;5094823;28;20256;-44
2023/06/30 07:53:55;;;;;;;3.43;1.47;;;19.60;99.90;;;;;;5094774;28;20690;-43
2023/06/30 07:56:20;;;;;;;3.40;1.77;;;19.70;99.90;;;;;;5094867;28;20178;-43
2023/06/30 07:58:46;;;;;;;3.27;1.47;;;19.70;99.90;;;;;;5094963;28;20163;-44
2023/06/30 08:01:11;;;;;;;6.10;1.70;;;19.70;99.90;;;;;;5094927;28;20247;-44
2023/06/30 08:03:37;;;;;;;2.83;1.40;;;19.70;99.90;;;;;;5094638;28;20170;-44
2023/06/30 08:06:02;;;;;;;3.70;1.40;;;19.70;99.90;;;;;;5094848;28;20199;-48
2023/06/30 08:08:31;;;;;;;2.87;1.57;;;19.80;99.90;;;;;;5094820;28;20182;-49
2023/06/30 08:10:57;;;;;;;4.90;1.40;;;19.80;99.90;;;;;;5094657;28;20160;-48
2023/06/30 08:13:22;;;;;;;5.57;1.23;;;19.80;99.90;;;;;;5094728;28;20244;-48
2023/06/30 08:15:48;;;;;;;5.53;1.43;;;19.80;99.90;;;;;;5094637;28;20709;-49
2023/06/30 08:18:13;;;;;;;5.13;2.23;;;19.70;99.90;;;;;;5094344;28;20183;-48
2023/06/30 08:20:39;;;;;;;5.37;1.77;;;19.60;99.90;;;;;;5094269;28;20291;-49
2023/06/30 08:23:04;;;;;;;4.73;1.70;;;19.60;99.90;;;;;;5076125;28;20183;-47
2023/06/30 08:25:30;;;;;;;3.00;1.47;;;19.60;99.90;;;;;;5094353;28;20316;-48
2023/06/30 08:27:56;;;;;;;5.60;1.50;;;19.70;99.90;;;;;;5094365;28;20179;-48
2023/06/30 08:30:22;;;;;;;4.67;1.80;;;19.70;99.90;;;;;;5094391;28;20228;-48
2023/06/30 08:32:48;;;;;;;4.90;1.40;;;19.60;99.90;;;;;;5094337;28;20183;-48
2023/06/30 08:35:14;;;;;;;2.10;1.10;;;19.60;99.90;;;;;;5093946;28;20210;-48
2023/06/30 08:37:40;;;;;;;5.83;1.70;;;19.60;99.90;;;;;;5094232;28;20662;-50
2023/06/30 08:40:06;;;;;;;3.37;1.33;;;19.60;99.90;;;;;;5093932;28;20175;-49
2023/06/30 08:42:36;;;;;;;3.60;1.40;;;19.70;99.90;;;;;;5093753;28;20267;-48
2023/06/30 08:45:03;;;;;;;4.93;1.53;;;19.90;99.90;;;;;;5094042;28;20281;-48
2023/06/30 08:47:32;;;;;;;2.50;1.30;;;20.10;99.90;;;;;;5093819;28;20228;-48
2023/06/30 08:49:58;;;;;;;3.83;1.43;;;20.30;99.90;;;;;;5093860;28;20209;-49
2023/06/30 08:52:25;;;;;;;4.00;1.40;;;20.60;99.90;;;;;;5093678;28;20175;-48
2023/06/30 08:54:50;;;;;;;2.73;1.43;;;20.50;99.90;;;;;;5093573;28;20202;-49
2023/06/30 08:57:17;;;;;;;2.93;1.10;;;20.50;99.90;;;;;;5093551;28;20190;-49
2023/06/30 08:59:43;;;;;;;5.00;1.10;;;20.50;99.90;;;;;;5093244;28;20182;-49
2023/06/30 09:02:10;;;;;;;2.13;1.20;;;20.80;99.90;;;;;;5093259;28;20194;-49
2023/06/30 09:04:38;;;;;;;2.77;1.07;;;20.80;99.90;;;;;;5093705;28;20552;-50
2023/06/30 09:07:06;;;;;;;3.67;1.33;;;20.90;99.90;;;;;;5093505;28;20178;-49
2023/06/30 09:09:44;;;;;;;3.33;1.10;;;20.90;99.90;;;;;;5093589;28;20175;-49
2023/06/30 09:12:10;;;;;;;2.63;1.20;;;20.80;99.90;;;;;;5075314;28;20186;-49
2023/06/30 09:14:39;;;;;;;5.63;1.23;;;20.60;99.90;;;;;;5093432;28;20199;-50
2023/06/30 09:17:05;;;;;;;2.20;0.90;;;20.60;99.90;;;;;;5093396;28;20737;-49
2023/06/30 09:19:31;;;;;;;4.03;1.17;;;20.70;99.90;;;;;;5093702;28;20270;-50
2023/06/30 09:21:57;;;;;;;2.20;0.90;;;20.70;99.90;;;;;;5093322;28;20335;-49
2023/06/30 09:24:23;;;;;;;1.93;0.90;;;20.90;99.90;;;;;;5075235;28;20199;-49
2023/06/30 09:26:51;;;;;;;1.53;1.20;;;21.10;99.90;;;;;;5093532;28;20163;-49
2023/06/30 09:29:21;;;;;;;3.67;1.10;;;21.20;99.90;;;;;;5093300;28;20183;-49
2023/06/30 09:31:50;;;;;;;3.53;1.30;;;21.10;99.90;;;;;;5094120;28;20171;-49
2023/06/30 09:34:15;;;;;;;4.73;1.00;;;21.10;99.90;;;;;;5093198;28;20204;-49
2023/06/30 09:36:52;;;;;;;2.30;0.90;;;21.20;99.90;;;;;;5075263;28;20282;-50
2023/06/30 09:39:19;;;;;;;2.37;1.17;;;21.40;99.90;;;;;;5093208;28;20244;-51
2023/06/30 09:41:46;;;;;;;3.47;0.97;;;21.40;99.90;;;;;;5093385;28;20210;-48
2023/06/30 09:44:13;;;;;;;3.90;1.00;;;21.40;99.90;;;;;;5093440;28;20206;-48
2023/06/30 09:46:52;;;;;;;2.67;1.30;;;21.30;99.90;;;;;;5075598;28;20190;-49
2023/06/30 09:49:25;;;;;;;2.63;1.03;;;21.20;99.90;;;;;;5093177;28;20193;-49
2023/06/30 09:51:51;;;;;;;2.17;1.00;;;21.60;99.90;;;;;;5093042;28;20244;-50
2023/06/30 09:54:18;;;;;;;3.53;1.30;;;21.90;99.90;;;;;;5075047;28;20202;-50
2023/06/30 09:56:45;;;;;;;3.17;1.13;;;21.90;99.90;;;;;;5093175;28;20191;-50
2023/06/30 09:59:12;;;;;;;2.60;1.00;;;22.00;99.90;;;;;;5093890;28;20258;-50
2023/06/30 10:01:38;;;;;;;5.67;1.30;;;22.00;99.90;;;;;;5093276;28;20606;-50
2023/06/30 10:04:04;;;;;;;2.87;1.20;;;22.20;99.90;;;;;;5093143;28;20186;-50
2023/06/30 10:06:30;;;;;;;2.40;1.00;;;22.20;99.90;;;;;;5075027;28;20178;-50
2023/06/30 10:08:57;;;;;;;1.77;0.90;;;22.00;99.90;;;;;;5092959;28;20179;-50
2023/06/30 10:11:25;;;;;;;5.43;1.20;;;22.10;99.90;;;;;;5093465;28;20171;-51
2023/06/30 10:13:54;;;;;;;2.47;0.93;;;22.40;99.90;;;;;;5096892;28;20190;-50
2023/06/30 10:16:21;;;;;;;2.23;1.10;;;22.70;99.90;;;;;;5078511;28;20183;-50
2023/06/30 10:18:50;;;;;;;3.43;1.10;;;23.00;99.90;;;;;;5096874;28;20554;-50
2023/06/30 10:21:15;;;;;;;2.97;1.17;;;23.30;99.90;;;;;;5097226;28;20247;-48
2023/06/30 10:23:43;;;;;;;3.70;1.10;;;23.30;99.90;;;;;;5099147;28;20194;-49
2023/06/30 10:26:12;;;;;;;3.67;1.27;;;23.20;99.90;;;;;;5078274;28;20199;-50
2023/06/30 10:28:38;;;;;;;3.00;1.30;;;22.80;99.90;;;;;;5096715;28;20267;-50
2023/06/30 10:31:04;;;;;;;3.67;1.10;;;22.50;99.90;;;;;;5096756;28;20179;-50
2023/06/30 10:33:30;;;;;;;2.80;1.00;;;22.40;99.90;;;;;;5096603;28;20183;-50
2023/06/30 10:35:58;;;;;;;2.00;1.07;;;22.40;99.90;;;;;;5096245;28;20204;-50
2023/06/30 10:38:25;;;;;;;4.63;1.10;;;22.40;99.90;;;;;;5078053;28;20186;-49
2023/06/30 10:41:10;;;;;;;2.43;1.20;;;22.50;99.90;;;;;;5096147;28;20202;-49
2023/06/30 10:44:04;;;;;;;3.53;1.23;;;22.50;99.90;;;;;;5096522;28;20163;-50
2023/06/30 10:46:48;;;;;;;4.47;1.20;;;22.60;99.90;;;;;;5096400;28;20174;-50
2023/06/30 10:49:27;;;;;;;2.35;0.98;;;22.80;99.90;;;;;;5096294;28;20186;-51
2023/06/30 10:51:55;;;;;;;3.20;1.00;;;22.80;99.90;;;;;;5097042;28;20216;-44
2023/06/30 10:54:22;;;;;;;1.83;0.97;;;22.90;99.90;;;;;;5096256;28;20206;-43
2023/06/30 10:56:49;;;;;;;5.40;1.20;;;23.20;99.90;;;;;;5077691;28;20209;-44
2023/06/30 10:59:23;;;;;;;5.50;1.37;;;23.30;99.90;;;;;;5096130;28;20647;-45
2023/06/30 11:02:22;;;;;;;3.27;1.30;;;23.50;99.90;;;;;;5096052;28;20190;-44
2023/06/30 11:04:50;;;;;;;3.30;1.40;;;23.50;99.90;;;;;;5096026;28;20191;-43
2023/06/30 11:07:36;;;;;;;2.85;1.23;;;23.60;99.90;;;;;;5096002;28;20187;-44
2023/06/30 11:10:02;;;;;;;3.03;1.20;;;23.80;99.90;;;;;;5095811;28;20159;-44
2023/06/30 11:12:48;;;;;;;3.83;1.70;;;24.00;99.90;;;;;;5095563;28;20194;-44
2023/06/30 11:15:25;;;;;;;3.53;1.20;;;23.90;99.90;;;;;;5095515;28;20203;-44
2023/06/30 11:17:51;;;;;;;4.40;1.27;;;23.90;99.90;;;;;;5095879;28;20624;-44
2023/06/30 11:20:17;;;;;;;2.80;1.25;;;23.90;99.90;;;;;;5095478;28;20215;-44
2023/06/30 11:22:56;;;;;;;4.60;1.58;;;24.00;99.90;;;;;;5094710;28;20214;-44
2023/06/30 11:25:21;;;;;;;3.28;1.10;;;23.80;99.90;;;;;;5095445;28;20229;-43
2023/06/30 11:27:47;;;;;;;4.18;1.58;;;23.90;99.90;;;;;;5095397;28;20674;-43
2023/06/30 11:30:18;;;;;;;3.80;1.33;;;24.10;99.90;;;;;;5077582;28;20217;-45
2023/06/30 11:32:45;;;;;;;4.18;1.08;;;24.10;99.90;;;;;;5095679;28;20167;-44
2023/06/30 11:35:12;;;;;;;3.75;1.20;;;24.30;99.90;;;;;;5095229;28;20202;-45
2023/06/30 11:37:38;;;;;;;2.88;1.38;;;24.40;99.90;;;;;;5095199;28;20207;-45
2023/06/30 11:40:07;;;;;;;3.13;1.55;;;24.60;99.90;;;;;;5095421;28;20194;-44
2023/06/30 11:42:35;;;;;;;1.70;0.90;;;24.40;99.90;;;;;;5095065;28;20244;-45
2023/06/30 11:45:01;;;;;;;5.90;1.55;;;24.30;99.90;;;;;;5094914;28;20203;-44
2023/06/30 11:47:26;;;;;;;3.30;2.05;;;24.10;99.90;;;;;;5095028;28;20175;-43
2023/06/30 11:49:52;;;;;;;4.28;1.30;;;23.90;99.90;;;;;;5095017;28;20155;-44
2023/06/30 11:52:19;;;;;;;2.65;1.02;;;23.80;99.90;;;;;;5095256;28;20183;-49
2023/06/30 11:54:44;;;;;;;3.10;1.15;;;23.80;99.90;;;;;;5094808;28;20206;-49
2023/06/30 11:57:10;;;;;;;2.67;1.60;;;23.90;99.90;;;;;;5094827;28;20647;-48
2023/06/30 11:59:37;;;;;;;2.30;1.17;;;24.00;99.90;;;;;;5094833;28;20254;-49
2023/06/30 12:02:03;;;;;;;3.88;1.13;;;24.10;99.90;;;;;;5095037;28;20275;-49
2023/06/30 12:04:36;;;;;;;3.17;1.42;;;24.10;99.90;;;;;;5095233;28;20195;-48
2023/06/30 12:07:05;;;;;;;3.10;1.23;;;24.10;99.90;;;;;;5094748;28;20169;-49
2023/06/30 12:09:32;;;;;;;3.28;1.67;;;24.20;99.90;;;;;;5095297;28;20213;-50
2023/06/30 12:11:58;;;;;;;3.75;2.17;;;24.30;99.90;;;;;;5094738;28;20198;-49
2023/06/30 12:14:25;;;;;;;5.20;1.80;;;24.70;99.90;;;;;;5094579;28;20206;-48
2023/06/30 12:16:53;;;;;;;3.10;1.65;;;24.80;99.90;;;;;;5094600;28;20190;-49
2023/06/30 12:19:28;;;;;;;3.60;1.52;;;24.90;99.90;;;;;;5094421;28;20186;-49
2023/06/30 12:22:03;;;;;;;2.33;1.65;;;25.00;99.90;;;;;;5094250;28;20244;-48
2023/06/30 12:24:33;;;;;;;4.97;1.58;;;25.20;99.90;;;;;;5094302;28;20200;-49
2023/06/30 12:27:03;;;;;;;5.72;1.77;;;25.50;99.90;;;;;;5094334;28;20542;-49
2023/06/30 12:29:30;;;;;;;6.03;1.70;;;25.70;99.90;;;;;;5094325;28;20175;-49
2023/06/30 12:31:56;;;;;;;4.30;1.83;;;25.90;99.90;;;;;;5094285;28;20183;-49
2023/06/30 12:34:32;;;;;;;4.50;1.90;;;26.00;99.90;;;;;;5093887;28;20690;-48
2023/06/30 12:36:58;;;;;;;4.00;1.65;;;26.20;99.90;;;;;;5094000;28;20190;-50
2023/06/30 12:39:23;;;;;;;3.83;1.60;;;26.00;99.90;;;;;;5094391;28;20163;-50
2023/06/30 12:41:49;;;;;;;4.97;1.90;;;25.90;99.90;;;;;;5094208;28;20202;-50
2023/06/30 12:44:14;;;;;;;3.25;1.42;;;25.80;99.90;;;;;;5093875;28;20689;-49
2023/06/30 12:46:41;;;;;;;2.83;1.60;;;25.70;99.90;;;;;;5094140;28;20538;-50